sensor_id;sensor_type;location;lat;lon;timestamp;P1;durP1;ratioP1;P2;durP2;ratioP2
52798;SDS011;38667;42.872;74.622;2023-10-31T00:01:53;50.70;;;21.17;;
52798;SDS011;38667;42.872;74.622;2023-10-31T00:04:19;52.15;;;20.88;;
52798;SDS011;38667;42.872;74.622;2023-10-31T00:06:45;49.22;;;21.92;;
52798;SDS011;38667;42.872;74.622;2023-10-31T00:09:12;44.28;;;20.25;;
52798;SDS011;38667;42.872;74.622;2023-10-31T00:11:40;41.90;;;19.40;;
52798;SDS011;38667;42.872;74.622;2023-10-31T00:14:07;43.17;;;20.33;;
52798;SDS011;38667;42.872;74.622;2023-10-31T00:16:33;49.88;;;20.05;;
52798;SDS011;38667;42.872;74.622;2023-10-31T00:18:59;42.42;;;18.90;;
52798;SDS011;38667;42.872;74.622;2023-10-31T00:21:26;41.05;;;18.13;;
52798;SDS011;38667;42.872;74.622;2023-10-31T00:23:52;43.72;;;19.30;;
52798;SDS011;38667;42.872;74.622;2023-10-31T00:26:18;40.90;;;17.20;;
52798;SDS011;38667;42.872;74.622;2023-10-31T00:28:46;28.83;;;15.55;;
52798;SDS011;38667;42.872;74.622;2023-10-31T00:31:12;32.10;;;13.85;;
52798;SDS011;38667;42.872;74.622;2023-10-31T00:33:38;29.70;;;12.10;;
52798;SDS011;38667;42.872;74.622;2023-10-31T00:36:05;21.67;;;11.23;;
52798;SDS011;38667;42.872;74.622;2023-10-31T00:38:32;23.65;;;10.38;;
52798;SDS011;38667;42.872;74.622;2023-10-31T00:40:58;25.92;;;9.77;;
52798;SDS011;38667;42.872;74.622;2023-10-31T00:43:24;23.63;;;9.88;;
52798;SDS011;38667;42.872;74.622;2023-10-31T00:45:52;23.15;;;8.82;;
52798;SDS011;38667;42.872;74.622;2023-10-31T00:48:18;26.05;;;9.18;;
52798;SDS011;38667;42.872;74.622;2023-10-31T00:50:45;17.08;;;7.95;;
52798;SDS011;38667;42.872;74.622;2023-10-31T00:53:11;23.30;;;7.53;;
52798;SDS011;38667;42.872;74.622;2023-10-31T00:55:37;28.80;;;8.38;;
52798;SDS011;38667;42.872;74.622;2023-10-31T00:58:03;21.58;;;8.13;;
52798;SDS011;38667;42.872;74.622;2023-10-31T01:00:30;32.92;;;8.70;;
52798;SDS011;38667;42.872;74.622;2023-10-31T01:02:58;20.20;;;8.70;;
52798;SDS011;38667;42.872;74.622;2023-10-31T01:05:24;25.10;;;8.43;;
52798;SDS011;38667;42.872;74.622;2023-10-31T01:07:50;21.98;;;8.25;;
52798;SDS011;38667;42.872;74.622;2023-10-31T01:10:16;27.20;;;8.63;;
52798;SDS011;38667;42.872;74.622;2023-10-31T01:12:43;42.55;;;9.15;;
52798;SDS011;38667;42.872;74.622;2023-10-31T01:15:09;32.38;;;8.57;;
52798;SDS011;38667;42.872;74.622;2023-10-31T01:17:35;25.98;;;7.70;;
52798;SDS011;38667;42.872;74.622;2023-10-31T01:20:04;36.85;;;8.43;;
52798;SDS011;38667;42.872;74.622;2023-10-31T01:22:31;32.28;;;9.07;;
52798;SDS011;38667;42.872;74.622;2023-10-31T01:24:57;34.97;;;9.35;;
52798;SDS011;38667;42.872;74.622;2023-10-31T01:27:23;18.65;;;7.95;;
52798;SDS011;38667;42.872;74.622;2023-10-31T01:29:50;26.60;;;8.30;;
52798;SDS011;38667;42.872;74.622;2023-10-31T01:32:16;29.15;;;8.52;;
52798;SDS011;38667;42.872;74.622;2023-10-31T01:34:42;25.52;;;8.18;;
52798;SDS011;38667;42.872;74.622;2023-10-31T01:37:10;38.33;;;9.13;;
52798;SDS011;38667;42.872;74.622;2023-10-31T01:39:36;47.90;;;9.15;;
52798;SDS011;38667;42.872;74.622;2023-10-31T01:42:03;34.85;;;8.52;;
52798;SDS011;38667;42.872;74.622;2023-10-31T01:44:29;47.67;;;9.43;;
52798;SDS011;38667;42.872;74.622;2023-10-31T01:46:56;27.98;;;8.48;;
52798;SDS011;38667;42.872;74.622;2023-10-31T01:49:22;29.27;;;8.43;;
52798;SDS011;38667;42.872;74.622;2023-10-31T01:51:48;32.28;;;8.70;;
52798;SDS011;38667;42.872;74.622;2023-10-31T01:54:16;56.13;;;10.55;;
52798;SDS011;38667;42.872;74.622;2023-10-31T01:56:43;31.15;;;8.55;;
52798;SDS011;38667;42.872;74.622;2023-10-31T01:59:09;37.55;;;9.50;;
52798;SDS011;38667;42.872;74.622;2023-10-31T02:01:37;27.50;;;9.30;;
52798;SDS011;38667;42.872;74.622;2023-10-31T02:04:04;34.13;;;9.88;;
52798;SDS011;38667;42.872;74.622;2023-10-31T02:06:30;26.48;;;9.15;;
52798;SDS011;38667;42.872;74.622;2023-10-31T02:08:57;25.05;;;9.43;;
52798;SDS011;38667;42.872;74.622;2023-10-31T02:11:25;31.33;;;10.35;;
52798;SDS011;38667;42.872;74.622;2023-10-31T02:13:51;29.23;;;10.00;;
52798;SDS011;38667;42.872;74.622;2023-10-31T02:16:17;30.13;;;10.38;;
52798;SDS011;38667;42.872;74.622;2023-10-31T02:18:43;37.03;;;9.85;;
52798;SDS011;38667;42.872;74.622;2023-10-31T02:21:10;35.88;;;9.85;;
52798;SDS011;38667;42.872;74.622;2023-10-31T02:23:38;23.50;;;7.18;;
52798;SDS011;38667;42.872;74.622;2023-10-31T02:26:04;18.08;;;7.18;;
52798;SDS011;38667;42.872;74.622;2023-10-31T02:28:30;22.38;;;5.93;;
52798;SDS011;38667;42.872;74.622;2023-10-31T02:30:56;21.15;;;3.38;;
52798;SDS011;38667;42.872;74.622;2023-10-31T02:33:23;16.48;;;2.88;;
52798;SDS011;38667;42.872;74.622;2023-10-31T02:35:49;12.30;;;2.80;;
52798;SDS011;38667;42.872;74.622;2023-10-31T02:38:15;21.45;;;2.70;;
52798;SDS011;38667;42.872;74.622;2023-10-31T02:40:43;11.65;;;3.08;;
52798;SDS011;38667;42.872;74.622;2023-10-31T02:43:09;11.23;;;1.48;;
52798;SDS011;38667;42.872;74.622;2023-10-31T02:45:36;6.28;;;2.15;;
52798;SDS011;38667;42.872;74.622;2023-10-31T02:48:02;13.32;;;2.20;;
52798;SDS011;38667;42.872;74.622;2023-10-31T02:50:28;9.25;;;2.38;;
52798;SDS011;38667;42.872;74.622;2023-10-31T02:52:55;12.90;;;2.20;;
52798;SDS011;38667;42.872;74.622;2023-10-31T02:55:21;8.23;;;1.90;;
52798;SDS011;38667;42.872;74.622;2023-10-31T02:57:49;6.15;;;1.58;;
52798;SDS011;38667;42.872;74.622;2023-10-31T03:00:15;6.68;;;1.48;;
52798;SDS011;38667;42.872;74.622;2023-10-31T03:02:42;7.60;;;2.00;;
52798;SDS011;38667;42.872;74.622;2023-10-31T03:05:08;4.53;;;1.60;;
52798;SDS011;38667;42.872;74.622;2023-10-31T03:07:34;2.95;;;1.67;;
52798;SDS011;38667;42.872;74.622;2023-10-31T03:10:01;4.20;;;1.70;;
52798;SDS011;38667;42.872;74.622;2023-10-31T03:12:27;5.82;;;1.75;;
52798;SDS011;38667;42.872;74.622;2023-10-31T03:14:55;2.80;;;1.80;;
52798;SDS011;38667;42.872;74.622;2023-10-31T03:17:21;5.53;;;1.70;;
52798;SDS011;38667;42.872;74.622;2023-10-31T03:19:48;6.45;;;1.73;;
52798;SDS011;38667;42.872;74.622;2023-10-31T03:22:14;4.57;;;2.17;;
52798;SDS011;38667;42.872;74.622;2023-10-31T03:24:40;3.65;;;2.38;;
52798;SDS011;38667;42.872;74.622;2023-10-31T03:27:06;7.03;;;2.47;;
52798;SDS011;38667;42.872;74.622;2023-10-31T03:29:33;10.32;;;2.38;;
52798;SDS011;38667;42.872;74.622;2023-10-31T03:32:00;5.45;;;2.70;;
52798;SDS011;38667;42.872;74.622;2023-10-31T03:34:27;10.85;;;3.05;;
52798;SDS011;38667;42.872;74.622;2023-10-31T03:36:53;6.65;;;3.15;;
52798;SDS011;38667;42.872;74.622;2023-10-31T03:39:19;6.20;;;2.88;;
52798;SDS011;38667;42.872;74.622;2023-10-31T03:41:45;12.50;;;3.38;;
52798;SDS011;38667;42.872;74.622;2023-10-31T03:44:12;7.20;;;3.60;;
52798;SDS011;38667;42.872;74.622;2023-10-31T03:46:38;7.05;;;3.60;;
52798;SDS011;38667;42.872;74.622;2023-10-31T03:49:06;8.52;;;3.80;;
52798;SDS011;38667;42.872;74.622;2023-10-31T03:51:32;11.65;;;3.63;;
52798;SDS011;38667;42.872;74.622;2023-10-31T03:53:58;4.70;;;3.05;;
52798;SDS011;38667;42.872;74.622;2023-10-31T03:56:25;6.25;;;3.35;;
52798;SDS011;38667;42.872;74.622;2023-10-31T03:58:51;4.95;;;2.80;;
52798;SDS011;38667;42.872;74.622;2023-10-31T04:01:17;5.72;;;2.83;;
52798;SDS011;38667;42.872;74.622;2023-10-31T04:03:43;8.18;;;3.50;;
52798;SDS011;38667;42.872;74.622;2023-10-31T04:06:11;10.80;;;4.00;;
52798;SDS011;38667;42.872;74.622;2023-10-31T04:08:38;8.85;;;4.15;;
52798;SDS011;38667;42.872;74.622;2023-10-31T04:11:05;12.18;;;4.20;;
52798;SDS011;38667;42.872;74.622;2023-10-31T04:13:31;9.00;;;4.15;;
52798;SDS011;38667;42.872;74.622;2023-10-31T04:15:57;6.72;;;3.40;;
52798;SDS011;38667;42.872;74.622;2023-10-31T04:18:23;9.35;;;3.65;;
52798;SDS011;38667;42.872;74.622;2023-10-31T04:20:50;8.98;;;3.38;;
52798;SDS011;38667;42.872;74.622;2023-10-31T04:23:17;9.82;;;4.05;;
52798;SDS011;38667;42.872;74.622;2023-10-31T04:25:44;8.25;;;3.75;;
52798;SDS011;38667;42.872;74.622;2023-10-31T04:28:10;7.35;;;3.50;;
52798;SDS011;38667;42.872;74.622;2023-10-31T04:30:36;6.40;;;3.40;;
52798;SDS011;38667;42.872;74.622;2023-10-31T04:33:02;6.25;;;4.25;;
52798;SDS011;38667;42.872;74.622;2023-10-31T04:35:29;6.68;;;3.70;;
52798;SDS011;38667;42.872;74.622;2023-10-31T04:37:55;5.88;;;3.53;;
52798;SDS011;38667;42.872;74.622;2023-10-31T04:40:23;8.23;;;4.80;;
52798;SDS011;38667;42.872;74.622;2023-10-31T04:42:49;7.57;;;3.78;;
52798;SDS011;38667;42.872;74.622;2023-10-31T04:45:15;6.18;;;4.40;;
52798;SDS011;38667;42.872;74.622;2023-10-31T04:47:41;7.10;;;4.13;;
52798;SDS011;38667;42.872;74.622;2023-10-31T04:50:08;6.03;;;3.90;;
52798;SDS011;38667;42.872;74.622;2023-10-31T04:52:34;8.55;;;5.18;;
52798;SDS011;38667;42.872;74.622;2023-10-31T04:55:01;7.85;;;4.30;;
52798;SDS011;38667;42.872;74.622;2023-10-31T04:57:28;8.85;;;4.75;;
52798;SDS011;38667;42.872;74.622;2023-10-31T04:59:55;6.65;;;4.68;;
52798;SDS011;38667;42.872;74.622;2023-10-31T05:02:21;9.65;;;5.30;;
52798;SDS011;38667;42.872;74.622;2023-10-31T05:04:47;8.32;;;5.15;;
52798;SDS011;38667;42.872;74.622;2023-10-31T05:07:14;8.48;;;4.68;;
52798;SDS011;38667;42.872;74.622;2023-10-31T05:09:40;8.55;;;5.07;;
52798;SDS011;38667;42.872;74.622;2023-10-31T05:12:07;6.30;;;3.95;;
52798;SDS011;38667;42.872;74.622;2023-10-31T05:14:35;6.03;;;4.32;;
52798;SDS011;38667;42.872;74.622;2023-10-31T05:17:01;7.95;;;4.38;;
52798;SDS011;38667;42.872;74.622;2023-10-31T05:19:27;5.93;;;4.10;;
52798;SDS011;38667;42.872;74.622;2023-10-31T05:21:55;5.55;;;3.40;;
52798;SDS011;38667;42.872;74.622;2023-10-31T05:24:21;6.60;;;4.18;;
52798;SDS011;38667;42.872;74.622;2023-10-31T05:26:47;7.60;;;4.28;;
52798;SDS011;38667;42.872;74.622;2023-10-31T05:29:14;6.38;;;3.58;;
52798;SDS011;38667;42.872;74.622;2023-10-31T05:31:41;6.70;;;4.07;;
52798;SDS011;38667;42.872;74.622;2023-10-31T05:34:08;4.38;;;3.20;;
52798;SDS011;38667;42.872;74.622;2023-10-31T05:36:34;6.65;;;3.90;;
52798;SDS011;38667;42.872;74.622;2023-10-31T05:39:00;5.90;;;3.97;;
52798;SDS011;38667;42.872;74.622;2023-10-31T05:41:27;7.03;;;4.30;;
52798;SDS011;38667;42.872;74.622;2023-10-31T05:43:53;6.63;;;5.03;;
52798;SDS011;38667;42.872;74.622;2023-10-31T05:46:19;6.82;;;5.10;;
52798;SDS011;38667;42.872;74.622;2023-10-31T05:48:47;7.05;;;5.10;;
52798;SDS011;38667;42.872;74.622;2023-10-31T05:51:14;6.20;;;4.60;;
52798;SDS011;38667;42.872;74.622;2023-10-31T05:53:41;7.90;;;5.10;;
52798;SDS011;38667;42.872;74.622;2023-10-31T05:56:09;7.13;;;4.95;;
52798;SDS011;38667;42.872;74.622;2023-10-31T05:58:36;6.13;;;4.57;;
52798;SDS011;38667;42.872;74.622;2023-10-31T06:01:03;7.18;;;4.03;;
52798;SDS011;38667;42.872;74.622;2023-10-31T06:03:30;6.15;;;3.88;;
52798;SDS011;38667;42.872;74.622;2023-10-31T06:05:58;9.32;;;5.35;;
52798;SDS011;38667;42.872;74.622;2023-10-31T06:08:24;7.00;;;4.80;;
52798;SDS011;38667;42.872;74.622;2023-10-31T06:10:51;8.38;;;4.85;;
52798;SDS011;38667;42.872;74.622;2023-10-31T06:13:17;6.97;;;4.50;;
52798;SDS011;38667;42.872;74.622;2023-10-31T06:15:43;7.25;;;3.75;;
52798;SDS011;38667;42.872;74.622;2023-10-31T06:18:09;6.70;;;4.15;;
52798;SDS011;38667;42.872;74.622;2023-10-31T06:20:36;5.45;;;3.55;;
52798;SDS011;38667;42.872;74.622;2023-10-31T06:23:04;8.00;;;3.88;;
52798;SDS011;38667;42.872;74.622;2023-10-31T06:25:30;8.65;;;4.18;;
52798;SDS011;38667;42.872;74.622;2023-10-31T06:27:56;8.35;;;4.60;;
52798;SDS011;38667;42.872;74.622;2023-10-31T06:30:22;5.80;;;4.10;;
52798;SDS011;38667;42.872;74.622;2023-10-31T06:32:49;10.52;;;4.70;;
52798;SDS011;38667;42.872;74.622;2023-10-31T06:35:15;4.93;;;3.55;;
52798;SDS011;38667;42.872;74.622;2023-10-31T06:37:41;6.28;;;3.08;;
52798;SDS011;38667;42.872;74.622;2023-10-31T06:40:09;5.00;;;2.20;;
52798;SDS011;38667;42.872;74.622;2023-10-31T06:42:36;3.78;;;2.67;;
52798;SDS011;38667;42.872;74.622;2023-10-31T06:45:02;6.13;;;2.97;;
52798;SDS011;38667;42.872;74.622;2023-10-31T06:47:29;4.35;;;2.75;;
52798;SDS011;38667;42.872;74.622;2023-10-31T06:49:56;4.15;;;3.10;;
52798;SDS011;38667;42.872;74.622;2023-10-31T06:52:22;3.70;;;2.65;;
52798;SDS011;38667;42.872;74.622;2023-10-31T06:54:48;4.20;;;2.67;;
52798;SDS011;38667;42.872;74.622;2023-10-31T06:57:16;5.80;;;3.40;;
52798;SDS011;38667;42.872;74.622;2023-10-31T06:59:42;5.75;;;2.78;;
52798;SDS011;38667;42.872;74.622;2023-10-31T07:02:08;6.68;;;3.08;;
52798;SDS011;38667;42.872;74.622;2023-10-31T07:04:35;3.20;;;2.38;;
52798;SDS011;38667;42.872;74.622;2023-10-31T07:07:01;3.60;;;2.55;;
52798;SDS011;38667;42.872;74.622;2023-10-31T07:09:28;3.17;;;2.30;;
52798;SDS011;38667;42.872;74.622;2023-10-31T07:11:54;3.53;;;2.20;;
52798;SDS011;38667;42.872;74.622;2023-10-31T07:14:22;5.72;;;2.75;;
52798;SDS011;38667;42.872;74.622;2023-10-31T07:16:48;6.22;;;2.60;;
52798;SDS011;38667;42.872;74.622;2023-10-31T07:19:14;4.13;;;2.38;;
52798;SDS011;38667;42.872;74.622;2023-10-31T07:21:41;9.05;;;3.70;;
52798;SDS011;38667;42.872;74.622;2023-10-31T07:24:07;5.13;;;2.80;;
52798;SDS011;38667;42.872;74.622;2023-10-31T07:26:34;6.78;;;2.88;;
52798;SDS011;38667;42.872;74.622;2023-10-31T07:29:00;5.80;;;2.10;;
52798;SDS011;38667;42.872;74.622;2023-10-31T07:31:28;3.35;;;2.00;;
52798;SDS011;38667;42.872;74.622;2023-10-31T07:33:54;6.07;;;1.92;;
52798;SDS011;38667;42.872;74.622;2023-10-31T07:36:21;2.03;;;1.23;;
52798;SDS011;38667;42.872;74.622;2023-10-31T07:38:47;4.00;;;1.63;;
52798;SDS011;38667;42.872;74.622;2023-10-31T07:41:14;3.75;;;1.20;;
52798;SDS011;38667;42.872;74.622;2023-10-31T07:43:40;2.65;;;1.17;;
52798;SDS011;38667;42.872;74.622;2023-10-31T07:46:06;2.60;;;1.25;;
52798;SDS011;38667;42.872;74.622;2023-10-31T07:48:34;4.72;;;1.33;;
52798;SDS011;38667;42.872;74.622;2023-10-31T07:51:01;2.60;;;1.55;;
52798;SDS011;38667;42.872;74.622;2023-10-31T07:53:27;4.65;;;2.47;;
52798;SDS011;38667;42.872;74.622;2023-10-31T07:55:53;2.40;;;1.58;;
52798;SDS011;38667;42.872;74.622;2023-10-31T07:58:19;4.68;;;2.65;;
52798;SDS011;38667;42.872;74.622;2023-10-31T08:00:46;2.45;;;1.40;;
52798;SDS011;38667;42.872;74.622;2023-10-31T08:03:12;4.60;;;1.98;;
52798;SDS011;38667;42.872;74.622;2023-10-31T08:05:40;5.03;;;2.60;;
52798;SDS011;38667;42.872;74.622;2023-10-31T08:08:06;14.00;;;5.97;;
52798;SDS011;38667;42.872;74.622;2023-10-31T08:10:32;10.93;;;5.43;;
52798;SDS011;38667;42.872;74.622;2023-10-31T08:12:59;36.00;;;12.13;;
52798;SDS011;38667;42.872;74.622;2023-10-31T08:15:25;45.20;;;17.00;;
52798;SDS011;38667;42.872;74.622;2023-10-31T08:17:51;50.38;;;19.70;;
52798;SDS011;38667;42.872;74.622;2023-10-31T08:20:17;6.75;;;4.25;;
52798;SDS011;38667;42.872;74.622;2023-10-31T08:22:45;7.60;;;2.92;;
52798;SDS011;38667;42.872;74.622;2023-10-31T08:25:11;8.32;;;3.47;;
52798;SDS011;38667;42.872;74.622;2023-10-31T08:27:38;7.05;;;4.13;;
52798;SDS011;38667;42.872;74.622;2023-10-31T08:30:04;8.95;;;5.20;;
52798;SDS011;38667;42.872;74.622;2023-10-31T08:32:32;11.18;;;6.22;;
52798;SDS011;38667;42.872;74.622;2023-10-31T08:34:58;24.58;;;8.25;;
52798;SDS011;38667;42.872;74.622;2023-10-31T08:37:24;21.15;;;10.18;;
52798;SDS011;38667;42.872;74.622;2023-10-31T08:39:52;18.13;;;7.35;;
52798;SDS011;38667;42.872;74.622;2023-10-31T08:42:18;18.80;;;8.45;;
52798;SDS011;38667;42.872;74.622;2023-10-31T08:44:44;24.50;;;10.65;;
52798;SDS011;38667;42.872;74.622;2023-10-31T08:47:11;19.67;;;8.60;;
52798;SDS011;38667;42.872;74.622;2023-10-31T08:49:37;19.83;;;8.27;;
52798;SDS011;38667;42.872;74.622;2023-10-31T08:52:03;20.65;;;7.30;;
52798;SDS011;38667;42.872;74.622;2023-10-31T08:54:30;14.13;;;6.57;;
52798;SDS011;38667;42.872;74.622;2023-10-31T08:56:57;10.65;;;3.88;;
52798;SDS011;38667;42.872;74.622;2023-10-31T08:59:24;12.20;;;4.95;;
52798;SDS011;38667;42.872;74.622;2023-10-31T09:01:50;9.82;;;5.28;;
52798;SDS011;38667;42.872;74.622;2023-10-31T09:04:16;11.52;;;4.85;;
52798;SDS011;38667;42.872;74.622;2023-10-31T09:06:43;11.88;;;5.60;;
52798;SDS011;38667;42.872;74.622;2023-10-31T09:09:09;13.20;;;5.80;;
52798;SDS011;38667;42.872;74.622;2023-10-31T09:11:35;11.70;;;5.05;;
52798;SDS011;38667;42.872;74.622;2023-10-31T09:14:03;14.48;;;6.75;;
52798;SDS011;38667;42.872;74.622;2023-10-31T09:16:29;19.13;;;7.30;;
52798;SDS011;38667;42.872;74.622;2023-10-31T09:18:56;14.77;;;6.65;;
52798;SDS011;38667;42.872;74.622;2023-10-31T09:21:22;15.10;;;7.32;;
52798;SDS011;38667;42.872;74.622;2023-10-31T09:23:48;19.35;;;8.10;;
52798;SDS011;38667;42.872;74.622;2023-10-31T09:26:14;19.55;;;10.15;;
52798;SDS011;38667;42.872;74.622;2023-10-31T09:28:41;19.80;;;8.95;;
52798;SDS011;38667;42.872;74.622;2023-10-31T09:31:09;18.65;;;8.90;;
52798;SDS011;38667;42.872;74.622;2023-10-31T09:33:35;16.33;;;8.43;;
52798;SDS011;38667;42.872;74.622;2023-10-31T09:36:01;13.40;;;7.50;;
52798;SDS011;38667;42.872;74.622;2023-10-31T09:38:28;14.10;;;7.22;;
52798;SDS011;38667;42.872;74.622;2023-10-31T09:40:54;13.00;;;7.57;;
52798;SDS011;38667;42.872;74.622;2023-10-31T09:43:21;11.15;;;6.45;;
52798;SDS011;38667;42.872;74.622;2023-10-31T09:45:47;11.05;;;6.32;;
52798;SDS011;38667;42.872;74.622;2023-10-31T09:48:15;8.98;;;4.63;;
52798;SDS011;38667;42.872;74.622;2023-10-31T09:50:42;6.63;;;4.28;;
52798;SDS011;38667;42.872;74.622;2023-10-31T09:53:09;9.30;;;4.95;;
52798;SDS011;38667;42.872;74.622;2023-10-31T09:55:36;7.07;;;4.43;;
52798;SDS011;38667;42.872;74.622;2023-10-31T09:58:04;8.60;;;4.53;;
52798;SDS011;38667;42.872;74.622;2023-10-31T10:00:30;9.63;;;5.18;;
52798;SDS011;38667;42.872;74.622;2023-10-31T10:02:56;14.10;;;7.97;;
52798;SDS011;38667;42.872;74.622;2023-10-31T10:05:24;15.05;;;8.10;;
52798;SDS011;38667;42.872;74.622;2023-10-31T10:07:53;12.35;;;6.82;;
52798;SDS011;38667;42.872;74.622;2023-10-31T10:10:21;12.70;;;6.30;;
52798;SDS011;38667;42.872;74.622;2023-10-31T10:12:47;14.57;;;7.28;;
52798;SDS011;38667;42.872;74.622;2023-10-31T10:15:13;13.52;;;7.78;;
52798;SDS011;38667;42.872;74.622;2023-10-31T10:17:41;13.50;;;7.85;;
52798;SDS011;38667;42.872;74.622;2023-10-31T10:20:14;17.95;;;7.72;;
52798;SDS011;38667;42.872;74.622;2023-10-31T10:22:42;10.70;;;5.60;;
52798;SDS011;38667;42.872;74.622;2023-10-31T10:25:09;10.25;;;5.32;;
52798;SDS011;38667;42.872;74.622;2023-10-31T10:27:36;13.75;;;8.27;;
52798;SDS011;38667;42.872;74.622;2023-10-31T10:30:03;17.55;;;8.93;;
52798;SDS011;38667;42.872;74.622;2023-10-31T10:32:30;15.15;;;8.80;;
52798;SDS011;38667;42.872;74.622;2023-10-31T10:34:56;12.02;;;7.28;;
52798;SDS011;38667;42.872;74.622;2023-10-31T10:37:22;11.73;;;7.05;;
52798;SDS011;38667;42.872;74.622;2023-10-31T10:39:52;14.65;;;7.63;;
52798;SDS011;38667;42.872;74.622;2023-10-31T10:42:19;14.18;;;7.47;;
52798;SDS011;38667;42.872;74.622;2023-10-31T10:44:50;10.88;;;6.95;;
52798;SDS011;38667;42.872;74.622;2023-10-31T10:47:20;12.35;;;6.65;;
52798;SDS011;38667;42.872;74.622;2023-10-31T10:49:46;8.93;;;5.15;;
52798;SDS011;38667;42.872;74.622;2023-10-31T10:52:17;8.80;;;5.53;;
52798;SDS011;38667;42.872;74.622;2023-10-31T10:54:49;9.52;;;5.28;;
52798;SDS011;38667;42.872;74.622;2023-10-31T10:57:26;9.77;;;4.60;;
52798;SDS011;38667;42.872;74.622;2023-10-31T11:00:02;9.45;;;5.10;;
52798;SDS011;38667;42.872;74.622;2023-10-31T11:02:30;17.95;;;10.13;;
52798;SDS011;38667;42.872;74.622;2023-10-31T11:04:57;29.98;;;16.70;;
52798;SDS011;38667;42.872;74.622;2023-10-31T11:07:23;30.05;;;16.48;;
52798;SDS011;38667;42.872;74.622;2023-10-31T11:09:50;33.33;;;19.48;;
52798;SDS011;38667;42.872;74.622;2023-10-31T11:12:18;27.90;;;15.43;;
52798;SDS011;38667;42.872;74.622;2023-10-31T11:14:45;28.20;;;16.90;;
52798;SDS011;38667;42.872;74.622;2023-10-31T11:17:14;27.38;;;16.60;;
52798;SDS011;38667;42.872;74.622;2023-10-31T11:19:48;36.45;;;21.30;;
52798;SDS011;38667;42.872;74.622;2023-10-31T11:22:15;37.22;;;22.58;;
52798;SDS011;38667;42.872;74.622;2023-10-31T11:24:43;41.42;;;24.20;;
52798;SDS011;38667;42.872;74.622;2023-10-31T11:27:09;37.75;;;22.40;;
52798;SDS011;38667;42.872;74.622;2023-10-31T11:29:37;33.58;;;20.58;;
52798;SDS011;38667;42.872;74.622;2023-10-31T11:32:04;30.17;;;19.33;;
52798;SDS011;38667;42.872;74.622;2023-10-31T11:34:34;43.67;;;24.40;;
52798;SDS011;38667;42.872;74.622;2023-10-31T11:37:18;50.72;;;29.23;;
52798;SDS011;38667;42.872;74.622;2023-10-31T11:42:43;50.78;;;25.58;;
52798;SDS011;38667;42.872;74.622;2023-10-31T11:45:14;41.90;;;23.88;;
52798;SDS011;38667;42.872;74.622;2023-10-31T11:47:53;37.40;;;22.17;;
52798;SDS011;38667;42.872;74.622;2023-10-31T11:50:20;40.20;;;22.58;;
52798;SDS011;38667;42.872;74.622;2023-10-31T11:52:57;35.55;;;20.25;;
52798;SDS011;38667;42.872;74.622;2023-10-31T11:55:28;38.47;;;21.48;;
52798;SDS011;38667;42.872;74.622;2023-10-31T11:57:55;39.53;;;22.77;;
52798;SDS011;38667;42.872;74.622;2023-10-31T12:00:23;44.00;;;24.42;;
52798;SDS011;38667;42.872;74.622;2023-10-31T12:02:59;52.35;;;31.13;;
52798;SDS011;38667;42.872;74.622;2023-10-31T12:05:26;54.05;;;31.08;;
52798;SDS011;38667;42.872;74.622;2023-10-31T12:07:52;49.95;;;31.38;;
52798;SDS011;38667;42.872;74.622;2023-10-31T12:10:22;45.58;;;29.55;;
52798;SDS011;38667;42.872;74.622;2023-10-31T12:12:49;52.80;;;33.33;;
52798;SDS011;38667;42.872;74.622;2023-10-31T12:15:15;46.03;;;28.35;;
52798;SDS011;38667;42.872;74.622;2023-10-31T12:17:43;36.88;;;24.50;;
52798;SDS011;38667;42.872;74.622;2023-10-31T12:20:10;33.92;;;21.90;;
52798;SDS011;38667;42.872;74.622;2023-10-31T12:22:36;35.90;;;23.02;;
52798;SDS011;38667;42.872;74.622;2023-10-31T12:25:03;41.03;;;26.40;;
52798;SDS011;38667;42.872;74.622;2023-10-31T12:27:43;30.48;;;18.85;;
52798;SDS011;38667;42.872;74.622;2023-10-31T12:30:10;29.13;;;16.35;;
52798;SDS011;38667;42.872;74.622;2023-10-31T12:32:37;23.38;;;14.68;;
52798;SDS011;38667;42.872;74.622;2023-10-31T12:35:06;25.67;;;15.25;;
52798;SDS011;38667;42.872;74.622;2023-10-31T12:37:35;27.20;;;15.45;;
52798;SDS011;38667;42.872;74.622;2023-10-31T12:40:03;30.45;;;18.15;;
52798;SDS011;38667;42.872;74.622;2023-10-31T12:42:30;28.88;;;19.10;;
52798;SDS011;38667;42.872;74.622;2023-10-31T12:44:57;36.28;;;21.73;;
52798;SDS011;38667;42.872;74.622;2023-10-31T12:47:24;28.25;;;16.55;;
52798;SDS011;38667;42.872;74.622;2023-10-31T12:52:49;24.95;;;13.07;;
52798;SDS011;38667;42.872;74.622;2023-10-31T12:55:16;21.17;;;12.38;;
52798;SDS011;38667;42.872;74.622;2023-10-31T12:57:43;20.73;;;13.75;;
52798;SDS011;38667;42.872;74.622;2023-10-31T13:00:10;23.45;;;12.88;;
52798;SDS011;38667;42.872;74.622;2023-10-31T13:02:38;25.88;;;15.20;;
52798;SDS011;38667;42.872;74.622;2023-10-31T13:05:08;27.42;;;17.50;;
52798;SDS011;38667;42.872;74.622;2023-10-31T13:07:35;33.72;;;19.98;;
52798;SDS011;38667;42.872;74.622;2023-10-31T13:10:03;31.67;;;17.67;;
52798;SDS011;38667;42.872;74.622;2023-10-31T13:12:30;24.13;;;14.43;;
52798;SDS011;38667;42.872;74.622;2023-10-31T13:14:56;26.20;;;15.80;;
52798;SDS011;38667;42.872;74.622;2023-10-31T13:17:23;29.50;;;15.23;;
52798;SDS011;38667;42.872;74.622;2023-10-31T13:19:49;33.60;;;15.50;;
52798;SDS011;38667;42.872;74.622;2023-10-31T13:22:15;35.30;;;21.10;;
52798;SDS011;38667;42.872;74.622;2023-10-31T13:24:41;36.63;;;21.70;;
52798;SDS011;38667;42.872;74.622;2023-10-31T13:27:09;41.42;;;22.13;;
52798;SDS011;38667;42.872;74.622;2023-10-31T13:29:35;36.90;;;22.30;;
52798;SDS011;38667;42.872;74.622;2023-10-31T13:32:02;44.22;;;22.98;;
52798;SDS011;38667;42.872;74.622;2023-10-31T13:34:28;43.70;;;24.33;;
52798;SDS011;38667;42.872;74.622;2023-10-31T13:36:54;40.72;;;22.45;;
52798;SDS011;38667;42.872;74.622;2023-10-31T13:39:21;48.80;;;26.80;;
52798;SDS011;38667;42.872;74.622;2023-10-31T13:41:47;49.67;;;28.95;;
52798;SDS011;38667;42.872;74.622;2023-10-31T13:44:15;43.65;;;27.85;;
52798;SDS011;38667;42.872;74.622;2023-10-31T13:46:41;52.67;;;30.75;;
52798;SDS011;38667;42.872;74.622;2023-10-31T13:49:07;51.28;;;28.33;;
52798;SDS011;38667;42.872;74.622;2023-10-31T13:51:34;55.88;;;28.90;;
52798;SDS011;38667;42.872;74.622;2023-10-31T13:54:00;40.78;;;25.30;;
52798;SDS011;38667;42.872;74.622;2023-10-31T13:56:26;46.30;;;25.00;;
52798;SDS011;38667;42.872;74.622;2023-10-31T13:58:52;49.15;;;25.98;;
52798;SDS011;38667;42.872;74.622;2023-10-31T14:01:20;42.70;;;25.48;;
52798;SDS011;38667;42.872;74.622;2023-10-31T14:03:46;46.78;;;25.00;;
52798;SDS011;38667;42.872;74.622;2023-10-31T14:06:13;39.92;;;21.98;;
52798;SDS011;38667;42.872;74.622;2023-10-31T14:08:39;41.25;;;20.23;;
52798;SDS011;38667;42.872;74.622;2023-10-31T14:11:05;33.72;;;18.17;;
52798;SDS011;38667;42.872;74.622;2023-10-31T14:13:32;26.23;;;14.80;;
52798;SDS011;38667;42.872;74.622;2023-10-31T14:15:58;34.13;;;16.77;;
52798;SDS011;38667;42.872;74.622;2023-10-31T14:18:26;33.25;;;17.58;;
52798;SDS011;38667;42.872;74.622;2023-10-31T14:20:52;30.85;;;17.77;;
52798;SDS011;38667;42.872;74.622;2023-10-31T14:23:18;34.53;;;17.73;;
52798;SDS011;38667;42.872;74.622;2023-10-31T14:25:44;36.88;;;19.25;;
52798;SDS011;38667;42.872;74.622;2023-10-31T14:28:11;36.47;;;17.08;;